sensor_id;sensor_type;location;lat;lon;timestamp;pressure;altitude;pressure_sealevel;temperature;humidity
13015;BME280;6573;57.696;11.950;2023-03-26T00:02:04;99553.22;;;7.52;100.00
13015;BME280;6573;57.696;11.950;2023-03-26T00:04:34;99543.72;;;7.46;100.00
13015;BME280;6573;57.696;11.950;2023-03-26T00:07:02;99571.53;;;7.53;100.00
13015;BME280;6573;57.696;11.950;2023-03-26T00:09:31;99536.97;;;7.24;100.00
13015;BME280;6573;57.696;11.950;2023-03-26T00:11:59;99573.38;;;7.45;100.00
13015;BME280;6573;57.696;11.950;2023-03-26T00:14:27;99565.38;;;7.57;100.00
13015;BME280;6573;57.696;11.950;2023-03-26T00:16:56;99579.97;;;7.79;100.00
13015;BME280;6573;57.696;11.950;2023-03-26T00:19:24;99565.84;;;7.93;100.00
13015;BME280;6573;57.696;11.950;2023-03-26T00:21:55;99559.34;;;7.52;100.00
13015;BME280;6573;57.696;11.950;2023-03-26T00:24:23;99573.44;;;7.39;100.00
13015;BME280;6573;57.696;11.950;2023-03-26T00:26:56;99575.94;;;7.47;100.00
13015;BME280;6573;57.696;11.950;2023-03-26T00:29:28;99580.41;;;7.37;100.00
13015;BME280;6573;57.696;11.950;2023-03-26T00:31:59;99575.97;;;7.45;100.00
13015;BME280;6573;57.696;11.950;2023-03-26T00:34:27;99564.94;;;7.16;100.00
13015;BME280;6573;57.696;11.950;2023-03-26T00:37:00;99575.56;;;6.95;100.00
13015;BME280;6573;57.696;11.950;2023-03-26T00:39:29;99583.34;;;7.02;100.00
13015;BME280;6573;57.696;11.950;2023-03-26T00:42:01;99587.63;;;7.14;100.00
13015;BME280;6573;57.696;11.950;2023-03-26T00:44:32;99589.47;;;7.00;100.00
13015;BME280;6573;57.696;11.950;2023-03-26T00:47:01;99590.28;;;7.09;100.00
13015;BME280;6573;57.696;11.950;2023-03-26T00:49:29;99584.09;;;7.15;100.00
13015;BME280;6573;57.696;11.950;2023-03-26T00:51:59;99598.19;;;7.02;100.00
13015;BME280;6573;57.696;11.950;2023-03-26T00:54:29;99599.91;;;7.00;100.00
13015;BME280;6573;57.696;11.950;2023-03-26T00:57:01;99597.34;;;6.97;100.00
13015;BME280;6573;57.696;11.950;2023-03-26T00:59:32;99599.81;;;7.12;100.00
13015;BME280;6573;57.696;11.950;2023-03-26T01:02:01;99596.53;;;6.89;100.00
13015;BME280;6573;57.696;11.950;2023-03-26T01:04:32;99599.03;;;7.07;100.00
13015;BME280;6573;57.696;11.950;2023-03-26T01:07:07;99580.06;;;6.78;100.00
13015;BME280;6573;57.696;11.950;2023-03-26T01:09:40;99603.44;;;6.96;100.00
13015;BME280;6573;57.696;11.950;2023-03-26T01:12:13;99606.94;;;6.95;100.00
13015;BME280;6573;57.696;11.950;2023-03-26T01:14:43;99597.34;;;6.97;100.00
13015;BME280;6573;57.696;11.950;2023-03-26T01:17:12;99598.22;;;6.96;100.00
13015;BME280;6573;57.696;11.950;2023-03-26T01:19:46;99606.22;;;6.73;100.00
13015;BME280;6573;57.696;11.950;2023-03-26T01:22:19;99588.88;;;6.63;100.00
13015;BME280;6573;57.696;11.950;2023-03-26T01:24:50;99598.13;;;7.05;100.00
13015;BME280;6573;57.696;11.950;2023-03-26T01:27:29;99603.53;;;6.87;100.00
13015;BME280;6573;57.696;11.950;2023-03-26T01:30:04;99608.81;;;6.78;100.00
13015;BME280;6573;57.696;11.950;2023-03-26T01:32:45;99586.38;;;6.46;100.00
13015;BME280;6573;57.696;11.950;2023-03-26T01:35:26;99560.28;;;6.43;100.00
13015;BME280;6573;57.696;11.950;2023-03-26T01:38:08;99575.13;;;6.35;100.00
13015;BME280;6573;57.696;11.950;2023-03-26T01:40:45;99594.16;;;6.54;100.00
13015;BME280;6573;57.696;11.950;2023-03-26T01:43:21;99587.97;;;6.72;100.00
13015;BME280;6573;57.696;11.950;2023-03-26T01:45:51;99589.91;;;6.39;100.00
13015;BME280;6573;57.696;11.950;2023-03-26T01:48:28;99596.03;;;6.31;100.00
13015;BME280;6573;57.696;11.950;2023-03-26T01:50:57;99603.84;;;6.38;100.00
13015;BME280;6573;57.696;11.950;2023-03-26T01:53:26;99584.75;;;6.27;100.00
13015;BME280;6573;57.696;11.950;2023-03-26T01:56:04;99584.78;;;6.18;100.00
13015;BME280;6573;57.696;11.950;2023-03-26T01:58:40;99610.69;;;6.58;100.00
13015;BME280;6573;57.696;11.950;2023-03-26T02:01:21;99601.97;;;6.59;100.00
13015;BME280;6573;57.696;11.950;2023-03-26T02:03:58;99596.84;;;6.43;100.00
13015;BME280;6573;57.696;11.950;2023-03-26T02:06:32;99590.69;;;6.53;100.00
13015;BME280;6573;57.696;11.950;2023-03-26T02:09:05;99593.38;;;6.41;100.00
13015;BME280;6573;57.696;11.950;2023-03-26T02:11:37;99605.34;;;6.73;100.00
13015;BME280;6573;57.696;11.950;2023-03-26T02:14:07;99594.91;;;6.73;100.00
13015;BME280;6573;57.696;11.950;2023-03-26T02:16:39;99595.88;;;6.60;100.00
13015;BME280;6573;57.696;11.950;2023-03-26T02:19:12;99603.75;;;6.53;100.00
13015;BME280;6573;57.696;11.950;2023-03-26T02:21:47;99601.06;;;6.63;100.00
13015;BME280;6573;57.696;11.950;2023-03-26T02:24:17;99566.44;;;6.32;100.00
13015;BME280;6573;57.696;11.950;2023-03-26T02:26:50;99607.00;;;6.89;100.00
13015;BME280;6573;57.696;11.950;2023-03-26T02:29:18;99593.00;;;6.96;100.00
13015;BME280;6573;57.696;11.950;2023-03-26T02:31:47;99587.91;;;6.78;100.00
13015;BME280;6573;57.696;11.950;2023-03-26T02:34:15;99593.38;;;6.44;100.00
13015;BME280;6573;57.696;11.950;2023-03-26T02:36:44;99596.88;;;6.37;100.00
13015;BME280;6573;57.696;11.950;2023-03-26T02:39:12;99595.28;;;6.09;100.00
13015;BME280;6573;57.696;11.950;2023-03-26T02:41:41;99581.38;;;6.07;100.00
13015;BME280;6573;57.696;11.950;2023-03-26T02:44:10;99596.00;;;6.37;100.00
13015;BME280;6573;57.696;11.950;2023-03-26T02:46:39;99601.16;;;6.50;100.00
13015;BME280;6573;57.696;11.950;2023-03-26T02:49:07;99611.69;;;6.40;100.00
13015;BME280;6573;57.696;11.950;2023-03-26T02:51:36;99608.81;;;6.78;100.00
13015;BME280;6573;57.696;11.950;2023-03-26T02:54:04;99567.41;;;6.17;100.00
13015;BME280;6573;57.696;11.950;2023-03-26T02:56:36;99617.81;;;6.28;100.00
13015;BME280;6573;57.696;11.950;2023-03-26T02:59:05;99605.72;;;6.09;100.00
13015;BME280;6573;57.696;11.950;2023-03-26T03:01:34;99602.31;;;5.89;100.00
13015;BME280;6573;57.696;11.950;2023-03-26T03:04:09;99614.34;;;6.23;100.00
13015;BME280;6573;57.696;11.950;2023-03-26T03:06:38;99578.81;;;5.83;100.00
13015;BME280;6573;57.696;11.950;2023-03-26T03:09:07;99607.44;;;6.13;100.00
13015;BME280;6573;57.696;11.950;2023-03-26T03:11:36;99602.25;;;6.04;100.00
13015;BME280;6573;57.696;11.950;2023-03-26T03:14:05;99616.16;;;6.12;100.00
13015;BME280;6573;57.696;11.950;2023-03-26T03:16:35;99608.31;;;6.14;100.00
13015;BME280;6573;57.696;11.950;2023-03-26T03:19:04;99624.78;;;6.23;100.00
13015;BME280;6573;57.696;11.950;2023-03-26T03:21:33;99623.09;;;6.19;100.00
13015;BME280;6573;57.696;11.950;2023-03-26T03:24:01;99614.50;;;5.90;100.00
13015;BME280;6573;57.696;11.950;2023-03-26T03:26:29;99619.72;;;5.90;100.00
13015;BME280;6573;57.696;11.950;2023-03-26T03:28:58;99623.19;;;5.77;100.00
13015;BME280;6573;57.696;11.950;2023-03-26T03:31:26;99620.59;;;5.74;100.00
13015;BME280;6573;57.696;11.950;2023-03-26T03:33:57;99576.31;;;5.44;100.00
13015;BME280;6573;57.696;11.950;2023-03-26T03:36:25;99619.72;;;5.75;100.00
13015;BME280;6573;57.696;11.950;2023-03-26T03:38:56;99626.59;;;6.09;100.00
13015;BME280;6573;57.696;11.950;2023-03-26T03:41:31;99581.44;;;5.86;100.00
13015;BME280;6573;57.696;11.950;2023-03-26T03:43:59;99626.59;;;6.09;100.00
13015;BME280;6573;57.696;11.950;2023-03-26T03:46:29;99630.06;;;6.17;100.00
13015;BME280;6573;57.696;11.950;2023-03-26T03:49:01;99635.28;;;6.14;100.00
13015;BME280;6573;57.696;11.950;2023-03-26T03:51:30;99628.38;;;6.07;100.00
13015;BME280;6573;57.696;11.950;2023-03-26T03:53:58;99626.66;;;5.82;100.00
13015;BME280;6573;57.696;11.950;2023-03-26T03:56:27;99640.63;;;5.63;100.00
13015;BME280;6573;57.696;11.950;2023-03-26T03:58:56;99617.16;;;5.57;100.00
13015;BME280;6573;57.696;11.950;2023-03-26T04:01:28;99638.84;;;5.92;100.00
13015;BME280;6573;57.696;11.950;2023-03-26T04:03:59;99639.72;;;5.80;100.00
13015;BME280;6573;57.696;11.950;2023-03-26T04:06:27;99647.53;;;5.91;100.00
13015;BME280;6573;57.696;11.950;2023-03-26T04:08:56;99657.97;;;5.88;100.00
13015;BME280;6573;57.696;11.950;2023-03-26T04:11:24;99655.31;;;6.06;100.00
13015;BME280;6573;57.696;11.950;2023-03-26T04:13:52;99651.00;;;6.02;100.00
13015;BME280;6573;57.696;11.950;2023-03-26T04:16:21;99639.72;;;5.68;100.00
13015;BME280;6573;57.696;11.950;2023-03-26T04:18:50;99669.31;;;5.87;100.00
13015;BME280;6573;57.696;11.950;2023-03-26T04:21:19;99668.44;;;5.61;100.00
13015;BME280;6573;57.696;11.950;2023-03-26T04:23:52;99660.63;;;5.53;100.00
13015;BME280;6573;57.696;11.950;2023-03-26T04:26:21;99671.91;;;5.69;100.00
13015;BME280;6573;57.696;11.950;2023-03-26T04:28:51;99652.81;;;5.37;100.00
13015;BME280;6573;57.696;11.950;2023-03-26T04:31:23;99678.88;;;5.52;100.00
13015;BME280;6573;57.696;11.950;2023-03-26T04:33:57;99684.06;;;5.79;100.00
13015;BME280;6573;57.696;11.950;2023-03-26T04:36:29;99677.13;;;5.78;100.00
13015;BME280;6573;57.696;11.950;2023-03-26T04:39:02;99684.06;;;5.76;100.00
13015;BME280;6573;57.696;11.950;2023-03-26T04:41:31;99688.47;;;5.42;100.00
13015;BME280;6573;57.696;11.950;2023-03-26T04:43:59;99678.88;;;5.85;100.00
13015;BME280;6573;57.696;11.950;2023-03-26T04:46:28;99691.94;;;5.65;100.00
13015;BME280;6573;57.696;11.950;2023-03-26T04:48:59;99680.63;;;5.56;100.00
13015;BME280;6573;57.696;11.950;2023-03-26T04:51:35;99689.31;;;5.49;100.00
13015;BME280;6573;57.696;11.950;2023-03-26T04:54:05;99684.13;;;5.55;100.00
13015;BME280;6573;57.696;11.950;2023-03-26T04:56:38;99691.91;;;5.64;100.00
13015;BME280;6573;57.696;11.950;2023-03-26T04:59:12;99684.09;;;5.73;100.00
13015;BME280;6573;57.696;11.950;2023-03-26T05:01:41;99678.91;;;5.46;100.00
13015;BME280;6573;57.696;11.950;2023-03-26T05:04:11;99685.88;;;5.38;100.00
13015;BME280;6573;57.696;11.950;2023-03-26T05:06:42;99698.03;;;5.20;100.00
13015;BME280;6573;57.696;11.950;2023-03-26T05:09:10;99693.66;;;5.04;100.00
13015;BME280;6573;57.696;11.950;2023-03-26T05:11:39;99699.75;;;5.09;100.00
13015;BME280;6573;57.696;11.950;2023-03-26T05:14:07;99678.88;;;5.18;100.00
13015;BME280;6573;57.696;11.950;2023-03-26T05:16:36;99680.63;;;5.07;100.00
13015;BME280;6573;57.696;11.950;2023-03-26T05:19:05;99686.72;;;5.12;100.00
13015;BME280;6573;57.696;11.950;2023-03-26T05:21:35;99696.28;;;5.44;100.00
13015;BME280;6573;57.696;11.950;2023-03-26T05:24:05;99694.56;;;5.31;100.00
13015;BME280;6573;57.696;11.950;2023-03-26T05:26:34;99676.28;;;5.34;100.00
13015;BME280;6573;57.696;11.950;2023-03-26T05:29:03;99696.28;;;5.35;100.00
13015;BME280;6573;57.696;11.950;2023-03-26T05:31:32;99677.16;;;5.08;100.00
13015;BME280;6573;57.696;11.950;2023-03-26T05:34:00;99701.50;;;5.26;100.00
13015;BME280;6573;57.696;11.950;2023-03-26T05:36:29;99680.63;;;5.56;100.00
13015;BME280;6573;57.696;11.950;2023-03-26T05:38:57;99701.50;;;5.65;100.00
13015;BME280;6573;57.696;11.950;2023-03-26T05:41:27;99710.19;;;5.28;100.00
13015;BME280;6573;57.696;11.950;2023-03-26T05:43:56;99696.28;;;5.22;100.00
13015;BME280;6573;57.696;11.950;2023-03-26T05:46:24;99720.63;;;5.43;100.00
13015;BME280;6573;57.696;11.950;2023-03-26T05:48:53;99725.81;;;5.15;100.00
13015;BME280;6573;57.696;11.950;2023-03-26T05:51:21;99697.94;;;4.84;100.00
13015;BME280;6573;57.696;11.950;2023-03-26T05:53:50;99709.25;;;4.82;100.00
13015;BME280;6573;57.696;11.950;2023-03-26T05:56:19;99723.22;;;5.21;100.00
13015;BME280;6573;57.696;11.950;2023-03-26T05:58:48;99685.84;;;5.10;100.00
13015;BME280;6573;57.696;11.950;2023-03-26T06:01:17;99725.84;;;5.37;100.00
13015;BME280;6573;57.696;11.950;2023-03-26T06:03:46;99738.84;;;5.24;100.00
13015;BME280;6573;57.696;11.950;2023-03-26T06:06:17;99728.41;;;5.26;100.00
13015;BME280;6573;57.696;11.950;2023-03-26T06:08:48;99732.78;;;5.26;100.00
13015;BME280;6573;57.696;11.950;2023-03-26T06:11:28;99738.00;;;5.18;100.00
13015;BME280;6573;57.696;11.950;2023-03-26T06:13:58;99740.59;;;5.27;100.00
13015;BME280;6573;57.696;11.950;2023-03-26T06:16:26;99748.44;;;5.47;100.00
13015;BME280;6573;57.696;11.950;2023-03-26T06:18:55;99748.41;;;5.29;100.00
13015;BME280;6573;57.696;11.950;2023-03-26T06:21:24;99755.41;;;5.36;100.00
13015;BME280;6573;57.696;11.950;2023-03-26T06:23:53;99767.53;;;5.34;100.00
13015;BME280;6573;57.696;11.950;2023-03-26T06:26:22;99778.88;;;5.52;100.00
13015;BME280;6573;57.696;11.950;2023-03-26T06:28:50;99737.97;;;5.29;100.00
13015;BME280;6573;57.696;11.950;2023-03-26T06:31:20;99778.00;;;5.52;100.00
13015;BME280;6573;57.696;11.950;2023-03-26T06:33:51;99791.91;;;5.46;100.00
13015;BME280;6573;57.696;11.950;2023-03-26T06:36:20;99782.34;;;5.53;100.00
13015;BME280;6573;57.696;11.950;2023-03-26T06:38:48;99795.38;;;5.56;100.00
13015;BME280;6573;57.696;11.950;2023-03-26T06:41:16;99778.81;;;5.19;100.00
13015;BME280;6573;57.696;11.950;2023-03-26T06:43:45;99807.53;;;5.39;100.00
13015;BME280;6573;57.696;11.950;2023-03-26T06:46:13;99808.38;;;5.27;100.00
13015;BME280;6573;57.696;11.950;2023-03-26T06:48:43;99805.78;;;5.32;100.00
13015;BME280;6573;57.696;11.950;2023-03-26T06:51:11;99793.63;;;5.37;100.00
13015;BME280;6573;57.696;11.950;2023-03-26T06:53:40;99784.03;;;5.23;100.00
13015;BME280;6573;57.696;11.950;2023-03-26T06:56:09;99803.16;;;5.19;100.00
13015;BME280;6573;57.696;11.950;2023-03-26T06:58:37;99811.84;;;5.15;100.00
13015;BME280;6573;57.696;11.950;2023-03-26T07:01:05;99802.28;;;5.08;100.00
13015;BME280;6573;57.696;11.950;2023-03-26T07:03:34;99809.19;;;5.09;100.00
13015;BME280;6573;57.696;11.950;2023-03-26T07:06:04;99817.03;;;5.08;100.00
13015;BME280;6573;57.696;11.950;2023-03-26T07:08:32;99790.03;;;4.89;100.00
13015;BME280;6573;57.696;11.950;2023-03-26T07:11:03;99821.38;;;5.07;100.00
13015;BME280;6573;57.696;11.950;2023-03-26T07:13:32;99810.03;;;4.95;100.00
13015;BME280;6573;57.696;11.950;2023-03-26T07:16:01;99833.47;;;4.96;100.00
13015;BME280;6573;57.696;11.950;2023-03-26T07:18:32;99826.59;;;5.10;100.00
13015;BME280;6573;57.696;11.950;2023-03-26T07:21:01;99830.09;;;5.26;100.00
13015;BME280;6573;57.696;11.950;2023-03-26T07:23:31;99831.84;;;5.29;100.00
13015;BME280;6573;57.696;11.950;2023-03-26T07:26:12;99829.25;;;5.26;100.00
13015;BME280;6573;57.696;11.950;2023-03-26T07:28:47;99814.44;;;5.21;100.00
13015;BME280;6573;57.696;11.950;2023-03-26T07:31:36;99782.19;;;4.86;100.00
13015;BME280;6573;57.696;11.950;2023-03-26T07:34:21;99813.50;;;5.01;100.00
13015;BME280;6573;57.696;11.950;2023-03-26T07:36:56;99838.78;;;5.27;100.00
13015;BME280;6573;57.696;11.950;2023-03-26T07:39:39;99831.88;;;5.35;100.00
13015;BME280;6573;57.696;11.950;2023-03-26T07:42:19;99847.50;;;5.26;100.00
13015;BME280;6573;57.696;11.950;2023-03-26T07:44:55;99857.88;;;5.16;100.00
13015;BME280;6573;57.696;11.950;2023-03-26T07:47:28;99847.47;;;5.29;100.00
13015;BME280;6573;57.696;11.950;2023-03-26T07:49:57;99847.53;;;5.38;100.00
13015;BME280;6573;57.696;11.950;2023-03-26T07:52:27;99851.00;;;5.31;100.00
13015;BME280;6573;57.696;11.950;2023-03-26T07:55:00;99832.66;;;5.03;100.00
13015;BME280;6573;57.696;11.950;2023-03-26T07:57:36;99838.66;;;4.87;100.00
13015;BME280;6573;57.696;11.950;2023-03-26T08:00:09;99815.19;;;4.83;100.00
13015;BME280;6573;57.696;11.950;2023-03-26T08:03:01;99843.00;;;4.91;100.00
13015;BME280;6573;57.696;11.950;2023-03-26T08:05:40;99847.41;;;4.98;100.00
13015;BME280;6573;57.696;11.950;2023-03-26T08:08:15;99857.84;;;4.98;100.00
13015;BME280;6573;57.696;11.950;2023-03-26T08:10:59;99854.50;;;5.48;100.00
13015;BME280;6573;57.696;11.950;2023-03-26T08:13:37;99854.50;;;5.57;100.00
13015;BME280;6573;57.696;11.950;2023-03-26T08:16:11;99852.81;;;5.68;100.00
13015;BME280;6573;57.696;11.950;2023-03-26T08:18:47;99857.94;;;5.32;100.00
13015;BME280;6573;57.696;11.950;2023-03-26T08:21:22;99851.88;;;5.49;100.00
13015;BME280;6573;57.696;11.950;2023-03-26T08:24:00;99831.84;;;5.22;100.00
13015;BME280;6573;57.696;11.950;2023-03-26T08:26:39;99872.72;;;5.34;100.00
13015;BME280;6573;57.696;11.950;2023-03-26T08:29:18;99845.63;;;4.91;100.00
13015;BME280;6573;57.696;11.950;2023-03-26T08:31:48;99863.06;;;5.07;100.00
13015;BME280;6573;57.696;11.950;2023-03-26T08:34:17;99864.84;;;5.23;100.00
13015;BME280;6573;57.696;11.950;2023-03-26T08:36:46;99883.97;;;5.19;100.00
13015;BME280;6573;57.696;11.950;2023-03-26T08:39:14;99883.97;;;5.19;100.00
13015;BME280;6573;57.696;11.950;2023-03-26T08:42:11;99889.13;;;5.07;100.00
13015;BME280;6573;57.696;11.950;2023-03-26T08:45:18;99894.38;;;5.10;100.00
13015;BME280;6573;57.696;11.950;2023-03-26T08:54:33;99897.88;;;5.15;100.00
13015;BME280;6573;57.696;11.950;2023-03-26T08:57:38;99852.56;;;4.92;100.00
13015;BME280;6573;57.696;11.950;2023-03-26T09:00:41;99915.19;;;5.07;100.00
13015;BME280;6573;57.696;11.950;2023-03-26T09:03:33;99913.56;;;5.31;100.00
13015;BME280;6573;57.696;11.950;2023-03-26T09:06:19;99920.63;;;5.65;100.00
13015;BME280;6573;57.696;11.950;2023-03-26T09:21:22;99936.28;;;5.65;100.00
13015;BME280;6573;57.696;11.950;2023-03-26T09:24:28;99951.84;;;5.41;100.00
13015;BME280;6573;57.696;11.950;2023-03-26T09:27:08;99956.16;;;5.39;100.00
13015;BME280;6573;57.696;11.950;2023-03-26T09:33:27;99958.78;;;5.36;100.00
13015;BME280;6573;57.696;11.950;2023-03-26T09:39:05;99963.34;;;5.85;100.00
13015;BME280;6573;57.696;11.950;2023-03-26T09:41:42;99966.78;;;5.85;100.00
13015;BME280;6573;57.696;11.950;2023-03-26T09:44:50;99964.22;;;5.96;100.00
13015;BME280;6573;57.696;11.950;2023-03-26T09:47:38;99967.69;;;5.92;100.00
13015;BME280;6573;57.696;11.950;2023-03-26T09:50:51;99981.59;;;5.88;100.00
13015;BME280;6573;57.696;11.950;2023-03-26T09:53:45;99982.47;;;5.87;100.00
13015;BME280;6573;57.696;11.950;2023-03-26T09:56:24;99978.13;;;5.92;100.00
13015;BME280;6573;57.696;11.950;2023-03-26T09:59:21;99983.38;;;5.95;100.00
13015;BME280;6573;57.696;11.950;2023-03-26T10:02:07;99992.03;;;5.88;100.00
13015;BME280;6573;57.696;11.950;2023-03-26T10:05:00;100004.13;;;5.68;100.00
13015;BME280;6573;57.696;11.950;2023-03-26T10:07:51;99997.25;;;5.85;100.00
13015;BME280;6573;57.696;11.950;2023-03-26T10:10:30;99995.56;;;6.05;100.00
13015;BME280;6573;57.696;11.950;2023-03-26T10:13:14;99988.56;;;5.89;100.00
13015;BME280;6573;57.696;11.950;2023-03-26T10:16:01;99993.84;;;6.16;100.00
13015;BME280;6573;57.696;11.950;2023-03-26T10:18:45;99992.91;;;5.93;100.00
13015;BME280;6573;57.696;11.950;2023-03-26T10:21:23;99998.16;;;5.95;100.00
13015;BME280;6573;57.696;11.950;2023-03-26T10:24:06;100001.56;;;5.81;100.00
13015;BME280;6573;57.696;11.950;2023-03-26T10:26:53;100005.97;;;5.87;100.00
13015;BME280;6573;57.696;11.950;2023-03-26T10:30:24;99990.25;;;5.84;100.00
13015;BME280;6573;57.696;11.950;2023-03-26T10:33:02;100008.59;;;5.96;100.00
13015;BME280;6573;57.696;11.950;2023-03-26T10:35:47;99993.78;;;5.92;100.00
13015;BME280;6573;57.696;11.950;2023-03-26T10:38:27;100009.47;;;5.95;100.00
13015;BME280;6573;57.696;11.950;2023-03-26T10:41:04;100014.63;;;5.86;100.00
13015;BME280;6573;57.696;11.950;2023-03-26T10:44:07;100009.25;;;5.47;100.00
13015;BME280;6573;57.696;11.950;2023-03-26T10:46:59;100011.03;;;5.57;100.00
13015;BME280;6573;57.696;11.950;2023-03-26T10:49:58;100035.41;;;5.66;100.00
13015;BME280;6573;57.696;11.950;2023-03-26T10:52:38;99999.66;;;5.38;100.00
13015;BME280;6573;57.696;11.950;2023-03-26T10:55:16;100020.50;;;5.40;100.00
13015;BME280;6573;57.696;11.950;2023-03-26T10:57:51;100038.00;;;5.60;100.00
13015;BME280;6573;57.696;11.950;2023-03-26T11:00:22;100047.63;;;5.72;100.00
13015;BME280;6573;57.696;11.950;2023-03-26T11:03:10;100037.16;;;5.63;100.00
13015;BME280;6573;57.696;11.950;2023-03-26T11:05:50;100050.16;;;5.61;100.00
13015;BME280;6573;57.696;11.950;2023-03-26T11:08:39;100042.34;;;5.60;100.00
13015;BME280;6573;57.696;11.950;2023-03-26T11:11:19;100020.66;;;5.71;100.00
13015;BME280;6573;57.696;11.950;2023-03-26T11:14:03;100045.03;;;5.75;100.00
13015;BME280;6573;57.696;11.950;2023-03-26T11:16:49;100049.38;;;5.73;100.00
13015;BME280;6573;57.696;11.950;2023-03-26T11:19:31;100045.84;;;5.65;100.00
13015;BME280;6573;57.696;11.950;2023-03-26T11:22:12;100071.94;;;5.71;100.00
13015;BME280;6573;57.696;11.950;2023-03-26T11:25:21;100075.44;;;5.70;100.00
13015;BME280;6573;57.696;11.950;2023-03-26T11:28:03;100084.06;;;5.57;100.00
13015;BME280;6573;57.696;11.950;2023-03-26T11:30:41;100078.03;;;5.68;100.00
13015;BME280;6573;57.696;11.950;2023-03-26T11:33:17;100080.63;;;5.64;100.00
13015;BME280;6573;57.696;11.950;2023-03-26T11:35:50;100064.09;;;5.60;100.00
13015;BME280;6573;57.696;11.950;2023-03-26T11:38:27;100082.38;;;5.71;100.00
13015;BME280;6573;57.696;11.950;2023-03-26T11:41:12;100032.75;;;5.48;100.00
13015;BME280;6573;57.696;11.950;2023-03-26T11:43:51;100058.06;;;5.75;100.00
13015;BME280;6573;57.696;11.950;2023-03-26T11:46:24;100092.06;;;5.88;100.00
13015;BME280;6573;57.696;11.950;2023-03-26T11:48:57;100091.13;;;5.79;100.00
13015;BME280;6573;57.696;11.950;2023-03-26T11:51:30;100091.19;;;5.88;100.00
13015;BME280;6573;57.696;11.950;2023-03-26T11:54:00;100098.03;;;5.65;100.00
13015;BME280;6573;57.696;11.950;2023-03-26T11:56:31;100104.97;;;5.63;100.00
13015;BME280;6573;57.696;11.950;2023-03-26T11:59:02;100078.91;;;5.69;100.00
13015;BME280;6573;57.696;11.950;2023-03-26T12:01:41;100100.72;;;5.83;100.00
13015;BME280;6573;57.696;11.950;2023-03-26T12:04:18;100109.44;;;5.80;100.00
13015;BME280;6573;57.696;11.950;2023-03-26T12:06:54;100113.66;;;5.62;100.00
13015;BME280;6573;57.696;11.950;2023-03-26T12:09:23;100121.38;;;5.45;100.00
13015;BME280;6573;57.696;11.950;2023-03-26T12:11:58;100097.81;;;5.32;100.00
13015;BME280;6573;57.696;11.950;2023-03-26T12:14:30;100116.19;;;5.50;100.00
13015;BME280;6573;57.696;11.950;2023-03-26T12:17:02;100124.88;;;5.47;100.00
13015;BME280;6573;57.696;11.950;2023-03-26T12:19:37;100141.44;;;5.57;100.00
13015;BME280;6573;57.696;11.950;2023-03-26T12:22:27;100134.44;;;5.47;100.00
13015;BME280;6573;57.696;11.950;2023-03-26T12:25:02;100126.66;;;5.56;100.00
13015;BME280;6573;57.696;11.950;2023-03-26T12:27:31;100127.50;;;5.50;100.00
13015;BME280;6573;57.696;11.950;2023-03-26T12:30:10;100132.66;;;5.43;100.00
13015;BME280;6573;57.696;11.950;2023-03-26T12:32:41;100143.97;;;5.40;100.00
13015;BME280;6573;57.696;11.950;2023-03-26T12:35:14;100136.91;;;5.27;100.00
13015;BME280;6573;57.696;11.950;2023-03-26T12:38:13;100142.81;;;5.06;100.00
13015;BME280;6573;57.696;11.950;2023-03-26T12:40:42;100140.25;;;5.12;100.00
13015;BME280;6573;57.696;11.950;2023-03-26T12:43:20;100155.22;;;5.35;100.00
13015;BME280;6573;57.696;11.950;2023-03-26T12:46:22;100151.78;;;5.42;100.00
13015;BME280;6573;57.696;11.950;2023-03-26T12:49:18;100148.22;;;5.28;100.00
13015;BME280;6573;57.696;11.950;2023-03-26T12:51:49;100157.69;;;5.19;100.00
13015;BME280;6573;57.696;11.950;2023-03-26T12:54:32;100163.81;;;5.24;100.00
13015;BME280;6573;57.696;11.950;2023-03-26T12:57:17;100168.16;;;5.22;100.00
13015;BME280;6573;57.696;11.950;2023-03-26T13:00:08;100181.19;;;5.22;100.00
13015;BME280;6573;57.696;11.950;2023-03-26T13:03:07;100169.09;;;5.34;100.00
13015;BME280;6573;57.696;11.950;2023-03-26T13:06:12;100189.94;;;5.28;100.00
13015;BME280;6573;57.696;11.950;2023-03-26T13:12:04;100193.25;;;5.08;100.00
13015;BME280;6573;57.696;11.950;2023-03-26T13:14:57;100151.25;;;4.78;100.00
13015;BME280;6573;57.696;11.950;2023-03-26T13:17:34;100188.72;;;4.91;100.00
13015;BME280;6573;57.696;11.950;2023-03-26T13:20:09;100189.41;;;4.73;100.00
13015;BME280;6573;57.696;11.950;2023-03-26T13:22:49;100205.25;;;4.94;100.00
13015;BME280;6573;57.696;11.950;2023-03-26T13:25:30;100201.84;;;4.98;100.00
13015;BME280;6573;57.696;11.950;2023-03-26T13:28:12;100215.78;;;5.03;100.00
13015;BME280;6573;57.696;11.950;2023-03-26T13:30:47;100208.78;;;4.99;100.00
13015;BME280;6573;57.696;11.950;2023-03-26T13:33:25;100222.47;;;4.80;100.00
13015;BME280;6573;57.696;11.950;2023-03-26T13:36:00;100220.84;;;4.91;100.00
13015;BME280;6573;57.696;11.950;2023-03-26T13:38:59;100224.31;;;4.90;100.00
13015;BME280;6573;57.696;11.950;2023-03-26T13:41:41;100222.75;;;5.07;100.00
13015;BME280;6573;57.696;11.950;2023-03-26T13:44:22;100227.94;;;5.04;100.00
13015;BME280;6573;57.696;11.950;2023-03-26T13:46:56;100231.31;;;4.94;100.00
13015;BME280;6573;57.696;11.950;2023-03-26T13:49:31;100226.22;;;5.06;100.00
13015;BME280;6573;57.696;11.950;2023-03-26T13:52:09;100219.13;;;4.90;100.00
13015;BME280;6573;57.696;11.950;2023-03-26T13:54:43;100247.75;;;4.89;100.00
13015;BME280;6573;57.696;11.950;2023-03-26T13:57:19;100243.38;;;4.86;100.00
13015;BME280;6573;57.696;11.950;2023-03-26T13:59:55;100240.59;;;4.70;100.00
13015;BME280;6573;57.696;11.950;2023-03-26T14:02:30;100251.88;;;4.70;100.00
13015;BME280;6573;57.696;11.950;2023-03-26T14:05:07;100252.09;;;4.88;100.00
13015;BME280;6573;57.696;11.950;2023-03-26T14:07:42;100219.00;;;4.78;100.00
13015;BME280;6573;57.696;11.950;2023-03-26T14:10:16;100254.91;;;5.08;100.00